Time;durP1;ratioP1;P1;durP2;ratioP2;P2;SDS_P1;SDS_P2;PMS_P1;PMS_P2;Temp;Humidity;BMP_temperature;BMP_pressure;BME280_temperature;BME280_humidity;BME280_pressure;Samples;Min_cycle;Max_cycle;Signal;HPM_P1;HPM_P2
2022/07/05 00:01:35;;;;;;;2.70;2.50;;;18.30;26.70;;;;;;5075755;28;20201;-72
2022/07/05 00:04:01;;;;;;;2.80;2.50;;;18.30;26.40;;;;;;5076023;28;20166;-73
2022/07/05 00:06:26;;;;;;;5.37;4.00;;;18.30;26.10;;;;;;5075689;28;20209;-72
2022/07/05 00:08:52;;;;;;;5.97;3.47;;;18.30;26.30;;;;;;5075560;28;20185;-72
2022/07/05 00:11:17;;;;;;;3.00;2.70;;;18.30;26.10;;;;;;5075754;28;20180;-71
2022/07/05 00:13:43;;;;;;;4.10;3.57;;;18.20;26.30;;;;;;5075585;28;20266;-72
2022/07/05 00:16:09;;;;;;;3.10;2.77;;;18.10;27.10;;;;;;5075247;28;20194;-72
2022/07/05 00:18:34;;;;;;;4.43;2.47;;;18.10;26.80;;;;;;5074912;28;20681;-71
2022/07/05 00:21:00;;;;;;;4.20;3.60;;;18.00;26.70;;;;;;5075501;28;20251;-71
2022/07/05 00:23:25;;;;;;;3.70;3.10;;;18.00;26.50;;;;;;5075384;28;20174;-71
2022/07/05 00:25:54;;;;;;;3.00;2.63;;;18.10;26.80;;;;;;5075303;28;20563;-71
2022/07/05 00:28:20;;;;;;;3.53;3.23;;;;;;;;;;5075094;28;20212;-71
2022/07/05 00:30:45;;;;;;;3.30;3.00;;;18.10;25.80;;;;;;5075384;28;20466;-71
2022/07/05 00:33:11;;;;;;;3.83;2.63;;;18.00;26.60;;;;;;5075567;28;20416;-71
2022/07/05 00:35:36;;;;;;;3.20;2.90;;;17.90;26.80;;;;;;5074843;28;20181;-71
2022/07/05 00:38:02;;;;;;;3.00;2.80;;;18.00;27.00;;;;;;5074740;28;20217;-71
2022/07/05 00:40:28;;;;;;;2.13;1.80;;;18.00;26.50;;;;;;5074903;28;20257;-72
2022/07/05 00:42:54;;;;;;;4.73;3.73;;;17.80;27.00;;;;;;5074707;28;20197;-71
2022/07/05 00:45:20;;;;;;;3.50;2.80;;;17.70;27.50;;;;;;5074760;28;20182;-71
2022/07/05 00:47:46;;;;;;;5.20;2.90;;;17.80;27.40;;;;;;5074684;28;20562;-72
2022/07/05 00:50:12;;;;;;;3.20;2.90;;;17.70;27.60;;;;;;5074303;28;20416;-71
2022/07/05 00:52:37;;;;;;;3.87;3.47;;;17.60;27.80;;;;;;5074658;28;20553;-72
2022/07/05 00:55:03;;;;;;;3.93;3.00;;;17.50;27.70;;;;;;5074523;28;20181;-71
2022/07/05 00:57:29;;;;;;;4.50;2.90;;;17.50;27.70;;;;;;5054598;28;20220;-71
2022/07/05 00:59:54;;;;;;;5.70;2.73;;;17.60;27.80;;;;;;5054180;28;20191;-70
2022/07/05 01:02:22;;;;;;;3.10;2.80;;;17.60;27.80;;;;;;5053553;28;20281;-71
2022/07/05 01:04:50;;;;;;;4.77;3.10;;;17.40;27.70;;;;;;5054339;28;20163;-70
2022/07/05 01:07:17;;;;;;;4.10;3.03;;;17.40;28.10;;;;;;5054412;28;20444;-72
2022/07/05 01:09:43;;;;;;;3.53;3.23;;;17.40;28.30;;;;;;5054354;28;20417;-72
2022/07/05 01:12:10;;;;;;;3.17;2.80;;;17.30;28.40;;;;;;5054248;28;20424;-71
2022/07/05 01:14:35;;;;;;;8.30;2.83;;;17.30;28.50;;;;;;5054238;28;20178;-72
2022/07/05 01:17:01;;;;;;;3.70;2.53;;;17.30;29.10;;;;;;5054080;28;20508;-69
2022/07/05 01:19:27;;;;;;;3.10;2.80;;;17.20;28.50;;;;;;5052244;28;20631;-70
2022/07/05 01:21:53;;;;;;;3.73;2.77;;;17.20;28.30;;;;;;5053922;28;20178;-71
2022/07/05 01:24:20;;;;;;;3.67;3.20;;;17.20;28.10;;;;;;5054021;28;20171;-70
2022/07/05 01:26:48;;;;;;;2.80;2.40;;;17.10;28.70;;;;;;5053850;28;20495;-71
2022/07/05 01:29:14;;;;;;;5.10;3.60;;;17.10;28.60;;;;;;5053655;28;20474;-72
2022/07/05 01:31:40;;;;;;;3.60;3.30;;;17.10;28.70;;;;;;5053859;28;20453;-71
2022/07/05 01:34:06;;;;;;;3.77;3.37;;;17.00;28.80;;;;;;5053937;28;20940;-70
2022/07/05 01:36:33;;;;;;;4.50;3.70;;;16.90;29.50;;;;;;5053998;28;20551;-71
2022/07/05 01:39:00;;;;;;;3.00;2.70;;;16.60;31.30;;;;;;5053616;28;20472;-71
2022/07/05 01:41:26;;;;;;;3.23;2.93;;;16.50;31.50;;;;;;5053660;28;20502;-72
2022/07/05 01:43:51;;;;;;;4.17;3.00;;;16.40;31.40;;;;;;5053727;28;20468;-72
2022/07/05 01:46:21;;;;;;;3.73;2.87;;;16.50;31.50;;;;;;5051995;28;20615;-72
2022/07/05 01:48:49;;;;;;;4.40;3.30;;;16.60;31.60;;;;;;5053252;28;20197;-71
2022/07/05 01:51:21;;;;;;;3.80;3.33;;;16.60;31.60;;;;;;5053503;28;20413;-72
2022/07/05 01:53:51;;;;;;;5.40;2.97;;;16.70;30.90;;;;;;5052406;28;20456;-71
2022/07/05 01:56:17;;;;;;;6.00;3.73;;;16.70;30.80;;;;;;5063063;28;20444;-72
2022/07/05 01:58:44;;;;;;;6.03;2.70;;;16.60;30.60;;;;;;5072508;28;20469;-71
2022/07/05 02:01:09;;;;;;;3.23;2.93;;;16.60;30.50;;;;;;5073232;28;20188;-70
2022/07/05 02:03:36;;;;;;;3.90;2.83;;;16.60;30.80;;;;;;5072164;28;20416;-71
2022/07/05 02:06:01;;;;;;;3.63;2.90;;;16.70;30.90;;;;;;5071774;28;20424;-71
2022/07/05 02:08:30;;;;;;;3.17;2.63;;;16.70;30.80;;;;;;5072742;28;20417;-71
2022/07/05 02:10:56;;;;;;;5.70;2.70;;;16.80;31.40;;;;;;5073010;28;20180;-70
2022/07/05 02:13:22;;;;;;;2.60;2.40;;;16.70;31.20;;;;;;5071121;28;20518;-71
2022/07/05 02:15:48;;;;;;;5.17;3.37;;;16.70;30.90;;;;;;5072838;28;20531;-71
2022/07/05 02:18:13;;;;;;;3.80;3.20;;;16.70;30.60;;;;;;5072951;28;20217;-71
2022/07/05 02:20:40;;;;;;;3.43;3.13;;;16.80;30.00;;;;;;5072833;28;20178;-72
2022/07/05 02:23:06;;;;;;;3.00;2.70;;;16.80;29.90;;;;;;5072704;28;20664;-71
2022/07/05 02:25:32;;;;;;;3.30;2.77;;;16.70;29.90;;;;;;5072952;28;20899;-71
2022/07/05 02:27:58;;;;;;;3.20;2.90;;;16.80;29.70;;;;;;5071997;28;20431;-70
2022/07/05 02:30:24;;;;;;;3.83;3.20;;;16.70;30.00;;;;;;5072727;28;20190;-72
2022/07/05 02:32:49;;;;;;;3.30;2.93;;;16.60;30.30;;;;;;5072770;28;20594;-71
2022/07/05 02:35:15;;;;;;;4.27;3.10;;;16.70;30.10;;;;;;5072555;28;20849;-70
2022/07/05 02:37:41;;;;;;;4.10;2.93;;;16.70;30.00;;;;;;5072550;28;20559;-71
2022/07/05 02:40:09;;;;;;;4.07;3.47;;;16.50;30.50;;;;;;5072303;28;20652;-70
2022/07/05 02:42:34;;;;;;;5.17;3.27;;;16.60;30.50;;;;;;5072335;28;20178;-72
2022/07/05 02:45:00;;;;;;;2.60;2.40;;;16.60;30.40;;;;;;5072424;28;20487;-72
2022/07/05 02:47:28;;;;;;;5.30;3.13;;;16.60;30.10;;;;;;5071408;28;20297;-72
2022/07/05 02:49:54;;;;;;;3.90;2.97;;;16.60;30.00;;;;;;5072343;28;20412;-71
2022/07/05 02:52:19;;;;;;;3.30;3.00;;;16.60;29.90;;;;;;5071236;28;20911;-72
2022/07/05 02:54:45;;;;;;;4.67;4.17;;;16.50;30.00;;;;;;5072366;28;20181;-72
2022/07/05 02:57:10;;;;;;;4.17;3.47;;;16.30;30.80;;;;;;5055204;28;20256;-72
2022/07/05 02:59:36;;;;;;;3.80;2.80;;;16.30;31.30;;;;;;5051707;28;20244;-72
2022/07/05 03:02:01;;;;;;;3.20;3.00;;;16.30;30.40;;;;;;5052266;28;20654;-72
2022/07/05 03:04:27;;;;;;;3.53;3.23;;;16.30;31.30;;;;;;5052321;28;20213;-71
2022/07/05 03:06:52;;;;;;;3.30;2.83;;;16.30;31.20;;;;;;5052006;28;20765;-70
2022/07/05 03:09:18;;;;;;;4.23;3.43;;;16.20;31.20;;;;;;5051746;28;20545;-70
2022/07/05 03:11:43;;;;;;;6.00;3.50;;;16.20;31.20;;;;;;5051919;28;20178;-70
2022/07/05 03:14:09;;;;;;;3.40;2.93;;;16.20;31.10;;;;;;5052092;28;20183;-71
2022/07/05 03:16:34;;;;;;;4.03;3.30;;;16.20;31.20;;;;;;5052032;28;20201;-71
2022/07/05 03:19:00;;;;;;;3.30;3.00;;;16.20;30.90;;;;;;5051886;28;20221;-70
2022/07/05 03:21:25;;;;;;;4.10;3.17;;;16.10;31.10;;;;;;5052034;28;20723;-70
2022/07/05 03:23:51;;;;;;;3.87;3.47;;;16.10;30.80;;;;;;5051980;28;20638;-70
2022/07/05 03:26:16;;;;;;;6.60;3.20;;;16.00;31.00;;;;;;5055954;28;20565;-70
2022/07/05 03:28:42;;;;;;;4.70;3.47;;;16.10;31.10;;;;;;5055654;28;20179;-71
2022/07/05 03:31:08;;;;;;;3.47;2.83;;;16.00;30.40;;;;;;5055738;28;20208;-71
2022/07/05 03:33:33;;;;;;;5.87;3.67;;;16.00;31.00;;;;;;5056193;28;20182;-71
2022/07/05 03:36:04;;;;;;;3.87;3.23;;;16.00;31.00;;;;;;5056250;28;20443;-70
2022/07/05 03:38:29;;;;;;;4.10;3.20;;;16.00;31.00;;;;;;5054325;28;20198;-70
2022/07/05 03:40:55;;;;;;;2.73;2.53;;;15.90;30.90;;;;;;5056014;28;20490;-70
2022/07/05 03:43:20;;;;;;;3.77;3.40;;;16.00;31.00;;;;;;5055764;28;20173;-70
2022/07/05 03:45:46;;;;;;;4.13;3.10;;;16.10;31.10;;;;;;5055676;28;20202;-71
2022/07/05 03:48:11;;;;;;;6.50;3.07;;;16.10;31.10;;;;;;5055287;28;20188;-71
2022/07/05 03:50:37;;;;;;;5.33;3.67;;;16.10;31.10;;;;;;5054438;28;20206;-70
2022/07/05 03:53:02;;;;;;;3.30;2.90;;;16.10;30.60;;;;;;5055746;28;20545;-71
2022/07/05 03:55:28;;;;;;;3.63;3.33;;;16.20;30.90;;;;;;5058603;28;20789;-71
2022/07/05 03:57:53;;;;;;;3.40;2.90;;;16.20;30.80;;;;;;5075515;28;20283;-72
2022/07/05 04:00:19;;;;;;;3.07;2.80;;;16.20;30.80;;;;;;5075450;28;20178;-71
2022/07/05 04:02:44;;;;;;;3.70;3.00;;;16.20;30.40;;;;;;5074217;28;20204;-71
2022/07/05 04:05:10;;;;;;;3.80;2.97;;;16.30;30.30;;;;;;5075143;28;20227;-71
2022/07/05 04:07:50;;;;;;;3.40;2.60;;;16.20;30.50;;;;;;5075887;28;20224;-71
2022/07/05 04:10:16;;;;;;;4.13;3.73;;;16.20;30.00;;;;;;5074968;28;20554;-71
2022/07/05 04:12:42;;;;;;;3.10;2.53;;;16.30;29.70;;;;;;5075409;28;20412;-71
2022/07/05 04:15:08;;;;;;;2.97;2.57;;;16.30;28.80;;;;;;5073828;28;20434;-72
2022/07/05 04:17:33;;;;;;;5.23;3.50;;;16.20;29.40;;;;;;5075329;28;20202;-72
2022/07/05 04:19:59;;;;;;;3.93;2.87;;;;;;;;;;5075017;28;20408;-70
2022/07/05 04:22:25;;;;;;;4.33;3.60;;;16.40;29.10;;;;;;5075832;28;20174;-71
2022/07/05 04:27:34;;;;;;;3.80;2.77;;;16.40;28.90;;;;;;5075292;28;20205;-72
2022/07/05 04:30:00;;;;;;;3.10;2.60;;;16.50;29.00;;;;;;5074723;28;20890;-72
2022/07/05 04:32:25;;;;;;;3.80;3.03;;;16.60;28.60;;;;;;5075098;28;20249;-72
2022/07/05 04:34:51;;;;;;;2.77;2.57;;;16.60;28.40;;;;;;5073612;28;20197;-72
2022/07/05 04:37:17;;;;;;;5.23;2.83;;;16.60;28.70;;;;;;5073390;28;20303;-73
2022/07/05 04:39:42;;;;;;;3.90;3.40;;;16.60;28.30;;;;;;5074443;28;20204;-72
2022/07/05 04:42:08;;;;;;;3.93;3.60;;;16.60;28.20;;;;;;5074746;28;20169;-72
2022/07/05 04:44:33;;;;;;;3.47;3.10;;;16.70;28.20;;;;;;5074587;28;20170;-72
2022/07/05 04:46:59;;;;;;;7.20;3.90;;;16.80;27.90;;;;;;5074760;28;20194;-73
2022/07/05 04:49:24;;;;;;;4.07;3.53;;;16.80;27.90;;;;;;5074278;28;20178;-71
2022/07/05 04:51:50;;;;;;;5.87;3.90;;;16.80;27.30;;;;;;5075303;28;20182;-67
2022/07/05 04:54:15;;;;;;;4.63;3.30;;;16.90;27.40;;;;;;5074466;28;20177;-72
2022/07/05 04:56:41;;;;;;;5.70;4.73;;;16.90;27.70;;;;;;5060236;28;20722;-73
2022/07/05 04:59:06;;;;;;;4.50;2.97;;;17.50;27.30;;;;;;5053875;28;20550;-69
2022/07/05 05:01:32;;;;;;;3.93;3.53;;;18.80;26.10;;;;;;5054163;28;20217;-72
2022/07/05 05:03:57;;;;;;;4.60;4.30;;;20.30;22.10;;;;;;5054292;28;20179;-71
2022/07/05 05:06:24;;;;;;;7.33;6.83;;;21.70;19.60;;;;;;5053716;28;20234;-70
2022/07/05 05:08:49;;;;;;;9.73;9.23;;;22.90;14.50;;;;;;5054627;28;20491;-72
2022/07/05 05:11:15;;;;;;;10.10;9.60;;;23.90;13.60;;;;;;5054386;28;20209;-70
2022/07/05 05:13:45;;;;;;;11.47;10.97;;;25.00;11.80;;;;;;5054072;28;20218;-70
2022/07/05 05:16:10;;;;;;;13.00;12.40;;;26.10;10.10;;;;;;5054452;28;20191;-74
2022/07/05 05:18:36;;;;;;;13.27;12.57;;;27.10;7.70;;;;;;5053905;28;20547;-71
2022/07/05 05:21:02;;;;;;;12.80;12.30;;;27.70;7.60;;;;;;5053885;28;20183;-71
2022/07/05 05:23:27;;;;;;;14.27;12.97;;;26.90;5.70;;;;;;5053675;28;20622;-71
2022/07/05 05:25:53;;;;;;;15.40;14.70;;;27.10;8.10;;;;;;5053337;28;20195;-72
2022/07/05 05:28:19;;;;;;;14.20;13.60;;;27.70;5.30;;;;;;5052308;28;20191;-72
2022/07/05 05:30:44;;;;;;;14.53;13.83;;;27.30;6.60;;;;;;5053140;28;20634;-71
2022/07/05 05:33:10;;;;;;;14.13;13.53;;;27.60;5.80;;;;;;5053640;28;20189;-72
2022/07/05 05:35:35;;;;;;;13.57;12.90;;;27.80;4.30;;;;;;5053687;28;20327;-72
2022/07/05 05:38:01;;;;;;;13.87;13.17;;;27.80;4.90;;;;;;5053754;28;20218;-71
2022/07/05 05:40:26;;;;;;;13.80;13.20;;;27.40;5.90;;;;;;5053190;28;20194;-72
2022/07/05 05:42:53;;;;;;;14.70;14.00;;;28.80;4.10;;;;;;5053337;28;20609;-71
2022/07/05 05:45:20;;;;;;;14.10;13.20;;;28.30;1.90;;;;;;5053576;28;20182;-72
2022/07/05 05:47:59;;;;;;;13.90;13.40;;;28.00;4.80;;;;;;5052825;28;20441;-72
2022/07/05 05:50:29;;;;;;;15.23;14.53;;;29.60;2.70;;;;;;5054550;28;20511;-72
2022/07/05 05:52:55;;;;;;;15.43;14.63;;;30.50;1.00;;;;;;5054216;28;20464;-72
2022/07/05 05:55:24;;;;;;;14.03;13.43;;;29.10;1.00;;;;;;5053758;28;20437;-71
2022/07/05 05:57:50;;;;;;;17.43;14.20;;;29.70;1.60;;;;;;5053099;28;20500;-72
2022/07/05 06:00:17;;;;;;;15.23;14.50;;;31.20;1.00;;;;;;5052780;28;20936;-72
2022/07/05 06:02:44;;;;;;;14.97;14.27;;;32.10;1.00;;;;;;5052662;28;20240;-72
2022/07/05 06:05:10;;;;;;;14.23;13.73;;;32.80;1.00;;;;;;5053266;28;20415;-71
2022/07/05 06:07:44;;;;;;;15.60;14.90;;;33.20;1.00;;;;;;5052879;28;20811;-70
2022/07/05 06:10:10;;;;;;;14.60;14.03;;;33.00;1.00;;;;;;5052517;28;20926;-72
2022/07/05 06:12:35;;;;;;;16.17;14.93;;;33.90;1.00;;;;;;5052262;28;20516;-71
2022/07/05 06:15:01;;;;;;;15.30;14.70;;;34.60;1.00;;;;;;5050958;28;20278;-71
2022/07/05 06:17:27;;;;;;;15.17;14.57;;;35.00;1.00;;;;;;5052601;28;20234;-71
2022/07/05 06:19:52;;;;;;;14.70;14.10;;;35.00;1.00;;;;;;5052272;28;20179;-72
2022/07/05 06:22:17;;;;;;;15.33;14.63;;;35.10;1.00;;;;;;5052685;28;20186;-72
2022/07/05 06:24:43;;;;;;;15.67;15.03;;;35.60;1.00;;;;;;5052598;28;20473;-71
2022/07/05 06:27:08;;;;;;;14.90;14.40;;;35.70;1.00;;;;;;5052535;28;20205;-71
2022/07/05 06:29:34;;;;;;;16.13;15.43;;;36.00;1.00;;;;;;5051805;28;20277;-70
2022/07/05 06:32:00;;;;;;;15.33;14.63;;;36.20;1.00;;;;;;5052388;28;20217;-71
2022/07/05 06:34:25;;;;;;;14.70;14.10;;;36.10;1.00;;;;;;5051164;28;20407;-71
2022/07/05 06:36:51;;;;;;;14.90;14.30;;;35.20;1.00;;;;;;5052668;28;20558;-72
2022/07/05 06:39:17;;;;;;;15.03;14.43;;;34.70;1.00;;;;;;5051279;28;20221;-70
2022/07/05 06:41:42;;;;;;;15.50;14.90;;;35.30;1.00;;;;;;5052588;28;20421;-69
2022/07/05 06:44:08;;;;;;;15.40;14.70;;;35.40;1.00;;;;;;5052147;28;20564;-69
2022/07/05 06:46:33;;;;;;;15.80;15.20;;;35.30;1.00;;;;;;5051269;28;20202;-70
2022/07/05 06:48:59;;;;;;;15.90;15.20;;;36.20;1.00;;;;;;5051720;28;20244;-69
2022/07/05 06:51:24;;;;;;;15.13;14.53;;;36.50;1.00;;;;;;5052378;28;20237;-70
2022/07/05 06:53:50;;;;;;;16.60;15.50;;;36.30;1.00;;;;;;5052132;28;20202;-71
2022/07/05 06:56:15;;;;;;;15.60;15.00;;;36.10;1.00;;;;;;5050792;28;20285;-72
2022/07/05 06:58:41;;;;;;;46.73;25.03;;;36.10;1.00;;;;;;5051546;28;20214;-72
2022/07/05 07:01:06;;;;;;;16.33;15.40;;;36.10;1.00;;;;;;5051798;28;20189;-71
2022/07/05 07:03:32;;;;;;;15.67;14.87;;;35.50;1.00;;;;;;5051881;28;20213;-70
2022/07/05 07:05:57;;;;;;;16.57;15.67;;;35.00;1.00;;;;;;5051613;28;20257;-70
2022/07/05 07:11:07;;;;;;;20.60;16.30;;;33.60;1.00;;;;;;5051726;28;20189;-71
2022/07/05 07:13:32;;;;;;;15.47;14.87;;;33.30;1.00;;;;;;5051759;28;20809;-70
2022/07/05 07:15:58;;;;;;;16.10;15.40;;;33.00;1.00;;;;;;5051596;28;20438;-70
2022/07/05 07:18:23;;;;;;;14.90;14.33;;;32.40;1.00;;;;;;5049760;28;20489;-71
2022/07/05 07:20:49;;;;;;;17.80;16.43;;;32.70;1.00;;;;;;5051817;28;20580;-71
2022/07/05 07:23:16;;;;;;;16.03;15.43;;;33.50;1.00;;;;;;5051874;28;20228;-70
2022/07/05 07:25:42;;;;;;;15.70;15.10;;;34.30;1.00;;;;;;5051754;28;20177;-70
2022/07/05 07:28:07;;;;;;;16.30;15.70;;;35.20;1.00;;;;;;5051240;28;20421;-71
2022/07/05 07:30:33;;;;;;;16.20;15.50;;;36.10;1.00;;;;;;5052048;28;20186;-70
2022/07/05 07:32:59;;;;;;;15.70;15.10;;;35.10;1.00;;;;;;5051604;28;20262;-70
2022/07/05 07:35:24;;;;;;;18.80;17.20;;;35.30;1.00;;;;;;5051745;28;20228;-70
2022/07/05 07:37:50;;;;;;;15.97;15.27;;;34.80;1.00;;;;;;5051600;28;20214;-70
2022/07/05 07:40:15;;;;;;;15.17;14.57;;;35.90;1.00;;;;;;5051438;28;20174;-72
2022/07/05 07:42:41;;;;;;;16.07;15.37;;;36.80;1.00;;;;;;5051496;28;20175;-72
2022/07/05 07:45:07;;;;;;;15.40;14.80;;;37.50;1.00;;;;;;5051790;28;20170;-72
2022/07/05 07:47:34;;;;;;;18.70;17.63;;;38.00;1.00;;;;;;5051608;28;20190;-72
2022/07/05 07:50:00;;;;;;;16.43;15.73;;;38.40;1.00;;;;;;5051076;28;20432;-70
2022/07/05 07:52:26;;;;;;;15.27;14.70;;;38.60;1.00;;;;;;5051459;28;20983;-69
2022/07/05 07:54:52;;;;;;;16.03;15.10;;;37.60;1.00;;;;;;5051604;28;20505;-70
2022/07/05 07:57:18;;;;;;;15.13;14.50;;;37.80;1.00;;;;;;5051312;28;20226;-71
2022/07/05 07:59:44;;;;;;;15.17;14.57;;;37.60;1.00;;;;;;5050783;28;20213;-71
2022/07/05 08:02:10;;;;;;;15.70;15.10;;;37.80;1.00;;;;;;5051375;28;20413;-71
2022/07/05 08:04:35;;;;;;;15.50;14.90;;;37.80;1.00;;;;;;5051498;28;20179;-71
2022/07/05 08:07:03;;;;;;;15.10;14.50;;;37.40;1.00;;;;;;5051943;28;21017;-71
2022/07/05 08:09:29;;;;;;;15.30;14.70;;;37.40;1.00;;;;;;5051500;28;20646;-71
2022/07/05 08:11:54;;;;;;;15.93;15.20;;;37.50;1.00;;;;;;5054880;28;20424;-72
2022/07/05 08:14:20;;;;;;;15.73;14.97;;;37.40;1.00;;;;;;5055155;28;20189;-71
2022/07/05 08:16:47;;;;;;;15.00;14.47;;;37.40;1.00;;;;;;5055290;28;20252;-71
2022/07/05 08:21:56;;;;;;;15.57;14.97;;;36.40;1.00;;;;;;5055533;28;20415;-71
2022/07/05 08:24:22;;;;;;;15.60;14.70;;;36.20;1.00;;;;;;5055710;28;20417;-71
2022/07/05 08:26:47;;;;;;;15.33;14.73;;;35.70;1.00;;;;;;5054880;28;20198;-70
2022/07/05 08:29:13;;;;;;;15.30;14.70;;;35.30;1.00;;;;;;5054473;28;20233;-69
2022/07/05 08:31:43;;;;;;;15.30;14.70;;;34.90;1.00;;;;;;5054897;28;20642;-71
2022/07/05 08:34:09;;;;;;;15.33;14.73;;;35.20;1.00;;;;;;5054673;28;20174;-71
2022/07/05 08:36:35;;;;;;;15.10;14.50;;;35.50;1.00;;;;;;5054602;28;20494;-70
2022/07/05 08:39:01;;;;;;;15.43;14.73;;;35.70;1.00;;;;;;5054130;28;20468;-70
2022/07/05 08:41:29;;;;;;;14.50;14.00;;;35.70;1.00;;;;;;5054680;28;20210;-71
2022/07/05 08:43:57;;;;;;;15.10;14.50;;;35.70;1.00;;;;;;5054651;28;20257;-71
2022/07/05 08:46:27;;;;;;;15.57;14.97;;;35.50;1.00;;;;;;5054448;28;20531;-70
2022/07/05 08:48:55;;;;;;;16.27;15.37;;;35.00;1.00;;;;;;5052842;28;20508;-70
2022/07/05 08:51:22;;;;;;;16.20;15.40;;;33.50;1.00;;;;;;5054265;28;20912;-70
2022/07/05 08:53:49;;;;;;;15.80;15.20;;;33.50;1.00;;;;;;5054698;28;20416;-71
2022/07/05 08:56:15;;;;;;;15.67;15.07;;;31.90;1.00;;;;;;5054450;28;20532;-71
2022/07/05 08:58:41;;;;;;;15.57;14.90;;;31.40;1.00;;;;;;5054502;28;20461;-73
2022/07/05 09:01:09;;;;;;;15.23;14.63;;;31.40;1.00;;;;;;5054305;28;20420;-71
2022/07/05 09:03:42;;;;;;;15.50;14.90;;;30.90;1.00;;;;;;5054292;28;20182;-70
2022/07/05 09:06:13;;;;;;;16.57;15.40;;;30.30;1.00;;;;;;5053920;28;20449;-71
2022/07/05 09:08:40;;;;;;;15.10;14.40;;;29.40;1.00;;;;;;5054628;28;20408;-70
2022/07/05 09:11:08;;;;;;;14.37;13.87;;;28.90;1.00;;;;;;5054133;28;20444;-70
2022/07/05 09:13:35;;;;;;;15.10;14.50;;;28.70;1.00;;;;;;5054101;28;20424;-71
2022/07/05 09:16:01;;;;;;;15.50;14.90;;;28.60;1.00;;;;;;5053810;28;20432;-71
2022/07/05 09:18:43;;;;;;;15.10;14.50;;;28.30;1.00;;;;;;5053404;28;20544;-71
2022/07/05 09:21:19;;;;;;;14.40;13.90;;;28.00;1.00;;;;;;5054161;28;20174;-70
2022/07/05 09:23:54;;;;;;;15.10;14.53;;;27.60;1.00;;;;;;5053432;28;20409;-69
2022/07/05 09:26:19;;;;;;;15.40;14.80;;;27.10;1.00;;;;;;5053946;28;20441;-71
2022/07/05 09:28:54;;;;;;;14.70;14.20;;;25.90;1.00;;;;;;5053885;28;20405;-69
2022/07/05 09:31:35;;;;;;;15.03;14.43;;;26.00;1.00;;;;;;5054069;28;20247;-70
2022/07/05 09:34:07;;;;;;;;;;;26.20;1.00;;;;;;5053055;28;20422;-69
2022/07/05 09:36:52;;;;;;;11.00;10.50;;;26.20;1.00;;;;;;5052626;28;20394;-70
2022/07/05 09:39:33;;;;;;;15.40;14.80;;;25.70;1.00;;;;;;5053335;28;20578;-70
2022/07/05 09:42:14;;;;;;;14.60;14.00;;;25.80;1.00;;;;;;5053547;28;20416;-70
2022/07/05 09:44:51;;;;;;;14.43;13.90;;;25.30;1.00;;;;;;5053764;28;20405;-70
2022/07/05 09:47:37;;;;;;;15.20;14.50;;;25.30;1.00;;;;;;5052732;28;20445;-71
2022/07/05 09:50:07;;;;;;;14.90;14.30;;;25.10;1.00;;;;;;5052994;28;20787;-71
2022/07/05 09:52:40;;;;;;;14.20;13.70;;;25.30;1.00;;;;;;5053681;28;20417;-71
2022/07/05 09:55:11;;;;;;;14.30;13.80;;;25.50;1.00;;;;;;5053511;28;20493;-69
2022/07/05 09:57:39;;;;;;;15.33;14.57;;;25.60;1.00;;;;;;5053063;28;20437;-69
2022/07/05 10:00:11;;;;;;;14.10;13.50;;;25.90;1.00;;;;;;5052650;28;20424;-70
2022/07/05 10:02:36;;;;;;;14.37;13.67;;;25.50;1.00;;;;;;5053231;28;20418;-70
2022/07/05 10:05:12;;;;;;;14.17;13.47;;;25.40;1.00;;;;;;5053324;28;20467;-70
2022/07/05 10:07:40;;;;;;;13.30;12.80;;;25.10;1.00;;;;;;5053903;28;20217;-71
2022/07/05 10:10:07;;;;;;;14.23;13.73;;;24.70;1.00;;;;;;5052601;28;20409;-69
2022/07/05 10:12:35;;;;;;;14.37;13.77;;;24.70;1.30;;;;;;5053114;28;20416;-70
2022/07/05 10:15:01;;;;;;;14.13;13.63;;;25.10;1.00;;;;;;5052953;28;20406;-71
2022/07/05 10:17:29;;;;;;;13.93;13.33;;;25.50;1.00;;;;;;5052736;28;20436;-70
2022/07/05 10:19:57;;;;;;;14.07;13.57;;;25.70;1.00;;;;;;5052390;28;20779;-69
2022/07/05 10:22:23;;;;;;;14.50;14.00;;;25.90;1.00;;;;;;5052896;28;20500;-70
2022/07/05 10:24:49;;;;;;;15.93;15.17;;;26.20;1.00;;;;;;5052652;28;20413;-70
2022/07/05 10:27:14;;;;;;;14.87;14.27;;;26.40;1.00;;;;;;5052536;28;20431;-69
2022/07/05 10:29:41;;;;;;;14.83;14.23;;;26.70;1.00;;;;;;5052687;28;20284;-71
2022/07/05 10:32:09;;;;;;;14.17;13.67;;;26.70;1.00;;;;;;5052800;28;20417;-69
2022/07/05 10:34:35;;;;;;;15.00;14.40;;;26.70;1.00;;;;;;5052172;28;20418;-70
2022/07/05 10:37:01;;;;;;;14.70;14.07;;;25.80;1.00;;;;;;5053150;28;20436;-70
2022/07/05 10:39:27;;;;;;;14.50;14.00;;;25.40;1.00;;;;;;5052330;28;20466;-70
2022/07/05 10:41:54;;;;;;;13.60;13.10;;;25.40;1.00;;;;;;5052952;28;20198;-70
2022/07/05 10:44:34;;;;;;;14.57;13.97;;;24.90;1.00;;;;;;5053023;28;20775;-71
2022/07/05 10:47:11;;;;;;;14.57;13.97;;;25.10;1.00;;;;;;5053498;28;20420;-70
2022/07/05 10:49:37;;;;;;;14.53;14.03;;;25.50;1.00;;;;;;5053250;28;20764;-70
2022/07/05 10:52:22;;;;;;;14.50;14.00;;;25.90;1.00;;;;;;5053111;28;20480;-70
2022/07/05 10:55:22;;;;;;;15.17;14.20;;;26.20;1.00;;;;;;5052940;28;20416;-70
2022/07/05 10:58:16;;;;;;;14.80;14.20;;;26.40;1.00;;;;;;5052240;28;20461;-68
2022/07/05 11:00:42;;;;;;;14.50;14.00;;;26.50;1.00;;;;;;5050925;28;20404;-69
2022/07/05 11:03:37;;;;;;;14.70;13.90;;;26.10;1.00;;;;;;5052112;28;20398;-69
2022/07/05 11:06:04;;;;;;;14.20;13.70;;;26.10;1.00;;;;;;5052266;28;20472;-69
2022/07/05 11:08:33;;;;;;;14.57;13.97;;;25.90;1.00;;;;;;5052216;28;20815;-69
2022/07/05 11:11:12;;;;;;;15.20;14.60;;;25.20;1.00;;;;;;5052006;28;20427;-68
2022/07/05 11:13:40;;;;;;;14.90;14.30;;;25.10;1.00;;;;;;5052458;28;20805;-69
2022/07/05 11:16:24;;;;;;;15.20;14.60;;;25.30;1.00;;;;;;5052089;28;20425;-69
2022/07/05 11:18:51;;;;;;;15.50;14.77;;;25.40;1.00;;;;;;5051647;28;20444;-70
2022/07/05 11:21:22;;;;;;;14.80;14.20;;;25.60;1.00;;;;;;5051807;28;20412;-69
2022/07/05 11:23:47;;;;;;;16.20;15.47;;;25.90;1.00;;;;;;5051821;28;20405;-69
2022/07/05 11:26:16;;;;;;;14.80;14.20;;;26.20;1.00;;;;;;5051836;28;20439;-69
2022/07/05 11:28:46;;;;;;;13.93;13.43;;;26.60;1.00;;;;;;5051554;28;20182;-69
2022/07/05 11:31:13;;;;;;;14.30;13.80;;;26.80;1.00;;;;;;5051941;28;20463;-68
2022/07/05 11:33:43;;;;;;;15.13;14.63;;;26.60;1.00;;;;;;5052017;28;20420;-68
2022/07/05 11:36:26;;;;;;;14.77;14.17;;;26.70;1.00;;;;;;5051855;28;20448;-69
2022/07/05 11:39:17;;;;;;;14.83;14.33;;;26.60;1.00;;;;;;5051326;28;20464;-69
2022/07/05 11:41:44;;;;;;;14.60;14.10;;;26.90;1.00;;;;;;5051619;28;20777;-69
2022/07/05 11:44:10;;;;;;;14.07;13.57;;;26.50;1.00;;;;;;5051660;28;20429;-69
2022/07/05 11:46:37;;;;;;;14.93;14.33;;;26.60;1.00;;;;;;5054413;28;20527;-68
2022/07/05 11:49:03;;;;;;;14.50;14.00;;;26.00;1.00;;;;;;5055175;28;20413;-71
2022/07/05 11:51:29;;;;;;;14.10;13.60;;;26.20;1.00;;;;;;5055635;28;20497;-71
2022/07/05 11:53:55;;;;;;;15.50;14.60;;;26.30;1.00;;;;;;5055681;28;20868;-70
2022/07/05 11:56:21;;;;;;;16.63;15.63;;;25.90;1.00;;;;;;5055598;28;20452;-71
2022/07/05 11:58:46;;;;;;;14.50;13.90;;;25.90;1.00;;;;;;5054946;28;20456;-69
2022/07/05 12:01:12;;;;;;;14.43;13.77;;;26.20;1.00;;;;;;5056354;28;20213;-68
2022/07/05 12:03:39;;;;;;;14.90;14.30;;;26.30;1.00;;;;;;5055490;28;20673;-68
2022/07/05 12:06:15;;;;;;;15.17;14.47;;;26.50;1.00;;;;;;5055281;28;20194;-69
2022/07/05 12:08:41;;;;;;;14.70;13.80;;;26.40;1.00;;;;;;5054825;28;20935;-70
2022/07/05 12:13:54;;;;;;;14.10;13.60;;;26.50;1.00;;;;;;5055484;28;20482;-69
2022/07/05 12:16:20;;;;;;;14.60;14.10;;;26.80;1.00;;;;;;5054928;28;20437;-70
2022/07/05 12:18:58;;;;;;;15.27;14.10;;;26.50;1.00;;;;;;5054650;28;20210;-69
2022/07/05 12:21:24;;;;;;;13.90;13.40;;;26.20;1.00;;;;;;5055056;28;20170;-71
2022/07/05 12:23:51;;;;;;;14.50;14.00;;;26.10;1.00;;;;;;5054808;28;21047;-68
2022/07/05 12:26:18;;;;;;;15.60;14.90;;;26.30;1.00;;;;;;5054973;28;20251;-69
2022/07/05 12:28:44;;;;;;;14.03;13.43;;;26.30;1.00;;;;;;5054780;28;20824;-70
2022/07/05 12:31:16;;;;;;;14.50;14.00;;;26.50;1.00;;;;;;5055003;28;20900;-68
2022/07/05 12:33:42;;;;;;;15.40;14.83;;;26.40;1.00;;;;;;5055003;28;20504;-69
2022/07/05 12:36:14;;;;;;;14.20;13.70;;;26.50;1.00;;;;;;5054864;28;20511;-70
2022/07/05 12:38:41;;;;;;;15.80;14.43;;;26.50;1.00;;;;;;5054347;28;20268;-69
2022/07/05 12:41:07;;;;;;;14.70;14.00;;;26.50;1.00;;;;;;5055072;28;20417;-68
2022/07/05 12:43:33;;;;;;;15.00;14.40;;;26.00;1.00;;;;;;5055022;28;20930;-68
2022/07/05 12:46:00;;;;;;;14.57;13.90;;;26.00;1.00;;;;;;5054962;28;20455;-69
2022/07/05 12:48:34;;;;;;;15.30;14.70;;;26.10;1.00;;;;;;5055036;28;20867;-69
2022/07/05 12:51:00;;;;;;;21.40;14.60;;;25.90;1.00;;;;;;5054984;28;20413;-70
2022/07/05 12:59:00;;;;;;;15.37;14.77;;;26.10;1.00;;;;;;5053542;28;20468;-70